createdAt,value
2022-08-08T00:00:53.087Z,69.81
2022-08-08T00:03:13.232Z,70.17
2022-08-08T00:06:04.445Z,69.99
2022-08-08T00:08:53.139Z,70.32
2022-08-08T00:12:02.901Z,70.52
2022-08-08T00:14:58.733Z,70.08
2022-08-08T00:18:03.652Z,70.58
2022-08-08T00:20:52.462Z,70.38
2022-08-08T00:23:47.576Z,70.71
2022-08-08T00:26:30.129Z,70.66
2022-08-08T00:29:15.020Z,70.88
2022-08-08T00:32:28.459Z,70.97
2022-08-08T00:35:21.007Z,71.37
2022-08-08T00:38:07.700Z,71.24
2022-08-08T00:41:54.902Z,71.41
2022-08-08T00:44:27.363Z,71.06
2022-08-08T00:47:36.982Z,71.50
2022-08-08T00:51:18.123Z,71.39
2022-08-08T00:54:13.564Z,70.83
2022-08-08T00:57:23.466Z,71.24
2022-08-08T01:00:22.537Z,71.26
2022-08-08T01:04:01.821Z,71.30
2022-08-08T01:06:50.884Z,71.50
2022-08-08T01:10:09.500Z,71.65
2022-08-08T01:13:02.618Z,71.76
2022-08-08T01:16:16.854Z,71.72
2022-08-08T01:19:25.485Z,71.83
2022-08-08T01:22:23.601Z,71.94
2022-08-08T01:25:40.653Z,71.90
2022-08-08T01:28:42.563Z,71.75
2022-08-08T01:32:15.258Z,72.24
2022-08-08T01:34:51.764Z,72.09
2022-08-08T01:37:56.930Z,72.19
2022-08-08T01:40:53.033Z,72.21
2022-08-08T01:43:48.943Z,72.42
2022-08-08T01:46:42.744Z,72.39
2022-08-08T01:49:44.210Z,72.39
2022-08-08T01:54:18.420Z,72.40
2022-08-08T01:56:28.393Z,72.52
2022-08-08T01:59:38.011Z,72.31
2022-08-08T02:02:50.132Z,72.61
2022-08-08T02:05:56.949Z,72.42
2022-08-08T02:08:47.458Z,72.93
2022-08-08T02:11:59.208Z,72.95
2022-08-08T02:14:55.683Z,72.93
2022-08-08T02:17:43.849Z,72.75
2022-08-08T02:21:01.409Z,72.76
2022-08-08T02:23:31.914Z,72.92
2022-08-08T02:26:15.805Z,73.06
2022-08-08T02:29:24.346Z,73.42
2022-08-08T02:32:05.500Z,73.13
2022-08-08T02:35:08.299Z,73.15
2022-08-08T02:38:16.601Z,73.66
2022-08-08T02:41:17.836Z,73.56
2022-08-08T02:44:39.009Z,73.46
2022-08-08T02:47:26.173Z,73.35
2022-08-08T02:50:29.777Z,73.50
2022-08-08T02:53:34.495Z,73.56
2022-08-08T02:56:09.409Z,73.75
2022-08-08T02:59:37.374Z,73.96
2022-08-08T03:02:50.382Z,73.78
2022-08-08T03:05:46.647Z,74.08
2022-08-08T03:08:21.174Z,73.90
2022-08-08T03:11:31.821Z,73.91
2022-08-08T03:16:02.466Z,74.14
2022-08-08T03:17:40.571Z,74.15
2022-08-08T03:20:13.427Z,74.24
2022-08-08T03:22:56.652Z,74.36
2022-08-08T03:25:33.936Z,74.39
2022-08-08T03:28:19.081Z,74.43
2022-08-08T03:31:13.545Z,74.43
2022-08-08T03:33:55.230Z,74.35
2022-08-08T03:36:33.303Z,74.05
2022-08-08T03:39:15.198Z,74.34
2022-08-08T03:42:11.767Z,74.68
2022-08-08T03:44:39.029Z,74.50
2022-08-08T03:47:19.438Z,74.68
2022-08-08T03:49:57.498Z,74.32
2022-08-08T03:52:32.346Z,74.55
2022-08-08T03:55:56.424Z,74.33
2022-08-08T03:58:32.414Z,74.66
2022-08-08T04:01:02.872Z,74.35
2022-08-08T04:03:57.522Z,74.55
2022-08-08T04:06:32.060Z,74.11
2022-08-08T04:09:11.207Z,74.38
2022-08-08T04:11:48.383Z,74.32
2022-08-08T04:14:33.253Z,74.41
2022-08-08T04:17:22.799Z,74.49
2022-08-08T04:20:04.698Z,74.21
2022-08-08T04:22:36.842Z,74.63
2022-08-08T04:25:09.044Z,74.47
2022-08-08T04:28:02.572Z,74.54
2022-08-08T04:30:44.228Z,74.34
2022-08-08T04:33:16.189Z,74.25
2022-08-08T04:35:51.327Z,74.29
2022-08-08T04:38:23.178Z,74.36
2022-08-08T04:40:55.805Z,74.42
2022-08-08T04:43:31.969Z,74.04
2022-08-08T04:46:18.626Z,74.01
2022-08-08T04:48:50.311Z,74.34
2022-08-08T04:51:28.026Z,74.38
2022-08-08T04:54:39.391Z,74.48
2022-08-08T04:57:04.593Z,74.64
2022-08-08T04:59:41.944Z,74.11
2022-08-08T05:02:14.497Z,73.98
2022-08-08T05:04:45.989Z,73.74
2022-08-08T05:07:19.638Z,73.90
2022-08-08T05:09:50.995Z,73.76
2022-08-08T05:12:22.494Z,73.80
2022-08-08T05:15:01.121Z,73.81
2022-08-08T05:17:53.375Z,74.00
2022-08-08T05:20:25.451Z,73.90
2022-08-08T05:22:58.124Z,74.10
2022-08-08T05:25:41.384Z,73.56
2022-08-08T05:28:13.037Z,73.99
2022-08-08T05:30:46.943Z,73.94
2022-08-08T05:33:18.998Z,73.61
2022-08-08T05:35:54.165Z,73.59
2022-08-08T05:38:30.333Z,73.59
2022-08-08T05:41:04.708Z,73.31
2022-08-08T05:44:04.225Z,73.48
2022-08-08T05:46:32.963Z,73.12
2022-08-08T05:49:10.408Z,72.55
2022-08-08T05:51:48.866Z,72.06
2022-08-08T05:54:28.688Z,72.31
2022-08-08T05:57:16.031Z,71.81
2022-08-08T06:00:19.694Z,72.17
2022-08-08T06:03:05.441Z,72.34
2022-08-08T06:05:46.849Z,72.21
2022-08-08T06:08:34.752Z,71.96
2022-08-08T06:11:08.221Z,71.67
2022-08-08T06:13:47.505Z,71.62
2022-08-08T06:16:27.544Z,71.71
2022-08-08T06:19:04.048Z,70.53
2022-08-08T06:21:51.123Z,69.48
2022-08-08T06:24:30.593Z,69.06
2022-08-08T06:27:10.724Z,68.45
2022-08-08T06:30:01.046Z,68.48
2022-08-08T06:32:47.718Z,67.92
2022-08-08T06:36:08.819Z,67.51
2022-08-08T06:38:21.570Z,67.87
2022-08-08T06:41:05.627Z,67.20
2022-08-08T06:43:38.931Z,66.63
2022-08-08T06:46:12.788Z,66.01
2022-08-08T06:48:46.032Z,65.39
2022-08-08T06:51:17.561Z,65.79
2022-08-08T06:53:51.233Z,65.11
2022-08-08T06:56:30.984Z,65.49
2022-08-08T06:59:12.394Z,64.76
2022-08-08T07:02:27.632Z,64.08
2022-08-08T07:05:05.594Z,63.36
2022-08-08T07:07:52.007Z,62.42
2022-08-08T07:10:24.341Z,62.55
2022-08-08T07:13:03.630Z,62.24
2022-08-08T07:16:04.515Z,60.72
2022-08-08T07:19:00.968Z,60.91
2022-08-08T07:21:50.502Z,60.43
2022-08-08T07:24:44.973Z,59.52
2022-08-08T07:27:27.777Z,59.85
2022-08-08T07:30:21.269Z,59.68
2022-08-08T07:32:59.436Z,58.75
2022-08-08T07:35:35.503Z,57.99
2022-08-08T07:38:20.545Z,56.87
2022-08-08T07:40:58.789Z,55.92
2022-08-08T07:43:36.895Z,55.83
2022-08-08T07:46:24.008Z,55.09
2022-08-08T07:49:00.625Z,54.56
2022-08-08T07:51:53.072Z,54.03
2022-08-08T07:54:33.263Z,53.69
2022-08-08T07:57:17.445Z,53.57
2022-08-08T08:00:05.285Z,53.12
2022-08-08T08:02:55.366Z,52.91
2022-08-08T08:05:33.284Z,53.46
2022-08-08T08:08:20.424Z,52.50
2022-08-08T08:10:56.981Z,52.39
2022-08-08T08:13:42.855Z,52.25
2022-08-08T08:16:34.766Z,52.17
2022-08-08T08:19:12.867Z,51.87
2022-08-08T08:21:58.163Z,51.17
2022-08-08T08:24:35.168Z,51.44
2022-08-08T08:27:08.366Z,50.76
2022-08-08T08:29:42.443Z,50.41
2022-08-08T08:32:24.057Z,49.92
2022-08-08T08:35:06.541Z,49.57
2022-08-08T08:37:59.361Z,49.74
2022-08-08T08:40:31.109Z,49.00
2022-08-08T08:43:03.564Z,48.37
2022-08-08T08:45:37.274Z,47.50
2022-08-08T08:48:09.857Z,46.81
2022-08-08T08:50:52.783Z,46.97
2022-08-08T08:53:54.227Z,46.19
2022-08-08T08:56:24.161Z,45.93
2022-08-08T08:58:57.963Z,46.24
2022-08-08T09:01:34.758Z,46.44
2022-08-08T09:04:30.372Z,45.46
2022-08-08T09:07:12.949Z,45.91
2022-08-08T09:09:57.448Z,45.44
2022-08-08T09:12:33.861Z,45.40
2022-08-08T09:15:07.228Z,45.30
2022-08-08T09:17:55.417Z,45.71
2022-08-08T09:21:57.640Z,45.49
2022-08-08T09:23:25.643Z,45.32
2022-08-08T09:26:13.446Z,44.64
2022-08-08T09:28:45.201Z,44.93
2022-08-08T09:31:42.278Z,44.79
2022-08-08T09:34:32.888Z,44.63
2022-08-08T09:37:57.454Z,44.54
2022-08-08T09:40:11.145Z,44.47
2022-08-08T09:42:51.444Z,45.06
2022-08-08T09:46:02.110Z,43.72
2022-08-08T09:48:32.506Z,44.60
2022-08-08T09:51:08.788Z,44.40
2022-08-08T09:53:59.910Z,44.30
2022-08-08T09:56:45.394Z,43.37
2022-08-08T10:00:01.220Z,42.24
2022-08-08T10:02:24.671Z,42.34
2022-08-08T10:05:14.258Z,41.61
2022-08-08T10:08:00.320Z,42.37
2022-08-08T10:10:50.879Z,42.09
2022-08-08T10:13:29.909Z,42.69
2022-08-08T10:16:06.810Z,42.50
2022-08-08T10:18:40.691Z,43.23
2022-08-08T10:21:24.739Z,43.11
2022-08-08T10:24:03.182Z,42.44
2022-08-08T10:26:57.611Z,43.11
2022-08-08T10:29:57.131Z,43.22
2022-08-08T10:32:33.974Z,43.96
2022-08-08T10:35:11.839Z,43.69
2022-08-08T10:38:02.250Z,42.76
2022-08-08T10:40:38.446Z,42.20
2022-08-08T10:43:10.931Z,41.70
2022-08-08T10:45:56.302Z,41.77
2022-08-08T10:48:38.844Z,41.06
2022-08-08T10:51:31.617Z,41.43
2022-08-08T10:54:24.810Z,41.38
2022-08-08T10:57:01.299Z,41.52
2022-08-08T10:59:40.041Z,42.12
2022-08-08T11:02:12.386Z,42.27
2022-08-08T11:04:53.234Z,42.34
2022-08-08T11:08:30.277Z,42.30
2022-08-08T11:10:28.740Z,42.53
2022-08-08T11:16:00.735Z,41.74
2022-08-08T11:18:36.029Z,41.20
2022-08-08T11:21:09.950Z,40.54
2022-08-08T11:23:43.352Z,40.70
2022-08-08T11:26:19.211Z,40.85
2022-08-08T11:28:52.317Z,40.75
2022-08-08T11:31:27.337Z,41.16
2022-08-08T11:34:25.743Z,41.81
2022-08-08T11:36:58.650Z,42.08
2022-08-08T11:39:37.173Z,42.44
2022-08-08T11:42:09.426Z,42.33
2022-08-08T11:44:41.121Z,42.28
2022-08-08T11:47:13.017Z,42.15
2022-08-08T11:49:55.425Z,42.61
2022-08-08T11:52:31.685Z,42.75
2022-08-08T11:55:15.522Z,43.22
2022-08-08T11:57:51.726Z,43.18
2022-08-08T12:00:28.558Z,42.41
2022-08-08T12:03:00.979Z,42.10
2022-08-08T12:05:36.787Z,42.19
2022-08-08T12:08:08.198Z,42.55
2022-08-08T12:10:48.263Z,42.41
2022-08-08T12:13:37.681Z,42.11
2022-08-08T12:16:18.035Z,42.34
2022-08-08T12:18:55.072Z,42.91
2022-08-08T12:22:00.234Z,42.85
2022-08-08T12:24:20.780Z,42.86
2022-08-08T12:26:59.742Z,42.92
2022-08-08T12:29:42.371Z,42.88
2022-08-08T12:32:20.304Z,43.45
2022-08-08T12:35:01.403Z,43.22
2022-08-08T12:37:40.818Z,43.16
2022-08-08T12:40:23.066Z,42.53
2022-08-08T12:42:55.892Z,42.56
2022-08-08T12:45:58.138Z,42.90
2022-08-08T12:48:37.939Z,42.34
2022-08-08T12:51:19.960Z,42.47
2022-08-08T12:54:01.212Z,42.96
2022-08-08T12:56:37.962Z,42.57
2022-08-08T12:59:36.449Z,42.17
2022-08-08T13:02:30.386Z,41.79
2022-08-08T13:05:05.916Z,42.02
2022-08-08T13:08:04.070Z,42.21
2022-08-08T13:10:46.134Z,41.93
2022-08-08T13:13:35.470Z,41.74
2022-08-08T13:16:25.953Z,41.60
2022-08-08T13:19:01.779Z,41.62
2022-08-08T13:21:53.311Z,41.50
2022-08-08T13:24:40.688Z,41.94
2022-08-08T13:27:35.272Z,41.83
2022-08-08T13:30:07.911Z,41.48
2022-08-08T13:32:39.921Z,40.93
2022-08-08T13:35:25.142Z,40.48
2022-08-08T13:38:06.946Z,40.78
2022-08-08T13:40:40.996Z,39.98
2022-08-08T13:43:16.093Z,39.72
2022-08-08T13:45:48.623Z,39.82
2022-08-08T13:48:26.030Z,40.12
2022-08-08T13:51:33.427Z,40.52
2022-08-08T13:54:00.594Z,40.51
2022-08-08T13:56:41.831Z,39.89
2022-08-08T13:59:39.261Z,39.45
2022-08-08T14:02:14.344Z,39.17
2022-08-08T14:05:21.709Z,38.91
2022-08-08T14:07:59.545Z,38.82
2022-08-08T14:10:37.447Z,37.92
2022-08-08T14:13:20.910Z,37.79
2022-08-08T14:16:15.917Z,37.33
2022-08-08T14:18:54.045Z,37.67
2022-08-08T14:21:51.936Z,37.95
2022-08-08T14:24:32.016Z,37.89
2022-08-08T14:27:07.596Z,37.86
2022-08-08T14:29:40.405Z,38.62
2022-08-08T14:32:26.348Z,39.01
2022-08-08T14:35:06.010Z,39.23
2022-08-08T14:37:57.300Z,38.58
2022-08-08T14:40:34.845Z,38.80
2022-08-08T14:43:22.607Z,39.11
2022-08-08T14:46:06.361Z,39.31
2022-08-08T14:48:57.297Z,38.45
2022-08-08T14:51:47.191Z,38.90
2022-08-08T14:54:29.368Z,39.44
2022-08-08T14:57:04.187Z,39.16
2022-08-08T14:59:45.899Z,39.68
2022-08-08T15:02:31.331Z,39.90
2022-08-08T15:05:08.315Z,40.50
2022-08-08T15:07:53.720Z,40.63
2022-08-08T15:10:31.446Z,41.46
2022-08-08T15:13:04.383Z,42.10
2022-08-08T15:16:01.320Z,41.68
2022-08-08T15:18:33.018Z,42.80
2022-08-08T15:21:08.242Z,42.82
2022-08-08T15:23:40.583Z,43.44
2022-08-08T15:26:13.019Z,43.60
2022-08-08T15:28:44.521Z,44.14
2022-08-08T15:31:25.897Z,44.01
2022-08-08T15:34:08.474Z,44.50
2022-08-08T15:36:50.684Z,43.74
2022-08-08T15:39:22.640Z,43.79
2022-08-08T15:41:56.004Z,44.06
2022-08-08T15:44:28.474Z,44.41
2022-08-08T15:47:00.196Z,44.64
2022-08-08T15:49:31.485Z,44.51
2022-08-08T15:52:14.142Z,44.59
2022-08-08T15:54:47.953Z,44.84
2022-08-08T15:57:23.558Z,45.07
2022-08-08T16:00:25.819Z,45.74
2022-08-08T16:02:50.992Z,45.58
2022-08-08T16:05:24.007Z,46.61
2022-08-08T16:07:55.383Z,46.32
2022-08-08T16:13:15.208Z,46.25
2022-08-08T16:13:30.320Z,46.68
2022-08-08T16:16:12.851Z,46.07
2022-08-08T16:18:56.911Z,46.49
2022-08-08T16:21:33.165Z,46.21
2022-08-08T16:24:10.115Z,46.55
2022-08-08T16:26:43.797Z,46.62
2022-08-08T16:29:23.836Z,45.91
2022-08-08T16:32:19.955Z,46.87
2022-08-08T16:34:55.522Z,46.63
2022-08-08T16:37:27.959Z,47.04
2022-08-08T16:40:02.546Z,46.48
2022-08-08T16:42:35.194Z,46.84
2022-08-08T16:46:36.848Z,46.16
2022-08-08T16:48:04.170Z,46.57
2022-08-08T16:50:36.686Z,46.53
2022-08-08T16:55:23.833Z,47.13
2022-08-08T16:56:03.085Z,46.47
2022-08-08T16:58:36.386Z,46.59
2022-08-08T17:01:11.398Z,46.88
2022-08-08T17:03:58.898Z,46.84
2022-08-08T17:06:39.746Z,47.39
2022-08-08T17:09:15.935Z,47.29
2022-08-08T17:11:55.594Z,47.42
2022-08-08T17:14:34.339Z,48.24
2022-08-08T17:17:41.665Z,48.23
2022-08-08T17:20:00.732Z,48.86
2022-08-08T17:22:39.327Z,48.78
2022-08-08T17:25:13.841Z,48.68
2022-08-08T17:27:49.620Z,49.05
2022-08-08T17:30:29.046Z,49.27
2022-08-08T17:34:53.905Z,49.22
2022-08-08T17:35:56.406Z,49.27
2022-08-08T17:38:43.647Z,49.47
2022-08-08T17:41:15.243Z,49.43
2022-08-08T17:44:01.547Z,49.82
2022-08-08T17:46:41.748Z,49.52
2022-08-08T17:49:23.943Z,49.72
2022-08-08T17:51:56.607Z,49.91
2022-08-08T17:54:29.016Z,49.64
2022-08-08T17:57:01.221Z,50.00
2022-08-08T17:59:36.465Z,50.01
2022-08-08T18:02:19.255Z,50.04
2022-08-08T18:05:04.323Z,50.06
2022-08-08T18:08:03.461Z,49.88
2022-08-08T18:10:30.988Z,50.27
2022-08-08T18:13:04.083Z,50.34
2022-08-08T18:15:38.986Z,50.52
2022-08-08T18:18:29.505Z,50.52
2022-08-08T18:21:03.158Z,50.50
2022-08-08T18:23:41.798Z,50.86
2022-08-08T18:26:24.721Z,50.79
2022-08-08T18:28:59.787Z,50.65
2022-08-08T18:31:34.934Z,50.71
2022-08-08T18:34:26.831Z,50.69
2022-08-08T18:37:00.324Z,50.63
2022-08-08T18:39:36.473Z,50.84
2022-08-08T18:42:13.968Z,50.55
2022-08-08T18:44:52.943Z,50.66
2022-08-08T18:47:28.506Z,50.72
2022-08-08T18:50:05.278Z,50.98
2022-08-08T18:52:37.479Z,51.11
2022-08-08T18:55:11.605Z,51.24
2022-08-08T18:57:45.520Z,51.51
2022-08-08T19:00:21.318Z,51.67
2022-08-08T19:02:55.330Z,51.69
2022-08-08T19:05:37.694Z,51.78
2022-08-08T19:08:25.039Z,52.26
2022-08-08T19:11:01.641Z,52.47
2022-08-08T19:13:47.268Z,52.64
2022-08-08T19:16:28.402Z,52.64
2022-08-08T19:19:13.182Z,52.77
2022-08-08T19:21:49.359Z,53.14
2022-08-08T19:24:39.177Z,53.29
2022-08-08T19:27:13.966Z,53.67
2022-08-08T19:29:46.345Z,54.45
2022-08-08T19:32:23.085Z,54.88
2022-08-08T19:34:55.173Z,55.17
2022-08-08T19:37:43.167Z,55.81
2022-08-08T19:40:16.590Z,56.57
2022-08-08T19:42:49.432Z,57.07
2022-08-08T19:45:58.742Z,57.04
2022-08-08T19:48:28.919Z,57.58
2022-08-08T19:51:03.406Z,57.58
2022-08-08T19:53:50.778Z,58.75
2022-08-08T19:56:25.923Z,58.46
2022-08-08T19:59:13.130Z,59.46
2022-08-08T20:02:01.335Z,59.21
2022-08-08T20:04:35.704Z,60.42
2022-08-08T20:08:28.950Z,60.35
2022-08-08T20:10:01.042Z,61.06
2022-08-08T20:12:37.000Z,61.24
2022-08-08T20:15:16.668Z,61.20
2022-08-08T20:17:48.603Z,61.44
2022-08-08T20:20:22.222Z,61.42
2022-08-08T20:22:56.075Z,61.45
2022-08-08T20:25:30.050Z,61.70
2022-08-08T20:28:07.550Z,62.27
2022-08-08T20:30:56.179Z,63.05
2022-08-08T20:34:27.398Z,63.21
2022-08-08T20:36:22.819Z,63.29
2022-08-08T20:38:54.163Z,63.43
2022-08-08T20:41:26.810Z,63.51
2022-08-08T20:44:00.929Z,63.75
2022-08-08T20:46:33.091Z,63.94
2022-08-08T20:49:05.221Z,64.23
2022-08-08T20:51:36.702Z,65.13
2022-08-08T20:54:14.532Z,65.01
2022-08-08T20:57:05.784Z,65.54
2022-08-08T20:59:48.833Z,65.46
2022-08-08T21:02:25.864Z,66.06
2022-08-08T21:05:00.832Z,66.16
2022-08-08T21:07:47.364Z,66.36
2022-08-08T21:10:28.245Z,66.37
2022-08-08T21:12:59.867Z,66.09
2022-08-08T21:16:06.087Z,66.61
2022-08-08T21:18:22.972Z,66.90
2022-08-08T21:20:59.234Z,66.51
2022-08-08T21:23:58.912Z,67.06
2022-08-08T21:26:27.240Z,67.16
2022-08-08T21:29:02.342Z,66.81
2022-08-08T21:31:53.346Z,67.43
2022-08-08T21:34:30.002Z,67.91
2022-08-08T21:37:11.497Z,68.29
2022-08-08T21:39:54.546Z,68.56
2022-08-08T21:42:28.346Z,69.17
2022-08-08T21:45:01.237Z,68.56
2022-08-08T21:48:06.187Z,68.60
2022-08-08T21:50:43.067Z,69.28
2022-08-08T21:54:36.228Z,69.65
2022-08-08T21:56:24.566Z,69.17
2022-08-08T21:58:58.710Z,69.11
2022-08-08T22:01:39.134Z,69.02
2022-08-08T22:04:12.847Z,69.27
2022-08-08T22:06:44.158Z,69.47
2022-08-08T22:09:15.625Z,69.49
2022-08-08T22:12:03.041Z,69.66
2022-08-08T22:14:42.588Z,69.67
2022-08-08T22:17:16.541Z,69.95
2022-08-08T22:20:12.192Z,70.44
2022-08-08T22:22:39.874Z,70.54
2022-08-08T22:25:12.475Z,70.81
2022-08-08T22:28:03.141Z,70.83
2022-08-08T22:30:36.015Z,70.80
2022-08-08T22:33:22.252Z,71.10
2022-08-08T22:36:04.589Z,71.17
2022-08-08T22:38:48.541Z,71.00
2022-08-08T22:41:21.070Z,70.87
2022-08-08T22:44:05.709Z,71.63
2022-08-08T22:46:38.658Z,71.17
2022-08-08T22:49:11.104Z,71.92
2022-08-08T22:51:49.357Z,71.54
2022-08-08T22:54:32.565Z,71.89
2022-08-08T22:57:18.227Z,71.58
2022-08-08T22:59:59.382Z,71.63
2022-08-08T23:02:31.670Z,71.85
2022-08-08T23:05:05.332Z,72.12
2022-08-08T23:07:51.162Z,72.07
2022-08-08T23:10:28.693Z,72.35
2022-08-08T23:13:00.881Z,72.33
2022-08-08T23:16:39.539Z,72.54
2022-08-08T23:18:23.654Z,72.49
2022-08-08T23:21:04.285Z,72.50
2022-08-08T23:23:48.394Z,72.99
2022-08-08T23:26:20.279Z,72.83
2022-08-08T23:28:53.162Z,72.85
2022-08-08T23:31:24.573Z,72.90
2022-08-08T23:34:17.481Z,73.44
2022-08-08T23:36:56.779Z,73.09
2022-08-08T23:39:41.573Z,73.58
2022-08-08T23:42:21.357Z,73.41
2022-08-08T23:44:54.550Z,73.74
2022-08-08T23:49:01.798Z,73.58
2022-08-08T23:50:30.021Z,73.75
2022-08-08T23:53:03.594Z,73.79
2022-08-08T23:55:38.344Z,73.89
2022-08-08T23:58:37.416Z,74.09
